createdAt,value
2017-12-04T00:00:51.513Z,20.98
2017-12-04T00:01:54.014Z,22.42
2017-12-04T00:02:56.479Z,20.85
2017-12-04T00:03:58.980Z,21.27
2017-12-04T00:05:01.488Z,21.70
2017-12-04T00:06:04.767Z,21.92
2017-12-04T00:07:07.301Z,21.83
2017-12-04T00:08:09.956Z,20.65
2017-12-04T00:09:12.439Z,21.65
2017-12-04T00:10:15.034Z,21.95
2017-12-04T00:11:18.366Z,21.45
2017-12-04T00:12:20.888Z,21.92
2017-12-04T00:13:23.422Z,21.55
2017-12-04T00:14:25.906Z,21.17
2017-12-04T00:15:28.376Z,22.80
2017-12-04T00:16:30.985Z,23.25
2017-12-04T00:17:33.475Z,23.15
2017-12-04T00:18:35.951Z,21.65
2017-12-04T00:19:38.801Z,22.20
2017-12-04T00:20:42.139Z,22.15
2017-12-04T00:21:44.622Z,22.65
2017-12-04T00:22:47.114Z,23.42
2017-12-04T00:23:49.629Z,23.00
2017-12-04T00:24:53.226Z,22.90
2017-12-04T00:25:55.740Z,21.70
2017-12-04T00:26:58.300Z,23.50
2017-12-04T00:28:00.780Z,23.80
2017-12-04T00:29:03.394Z,22.10
2017-12-04T00:30:06.865Z,23.83
2017-12-04T00:31:09.356Z,22.92
2017-12-04T00:32:12.760Z,21.67
2017-12-04T00:33:17.026Z,21.65
2017-12-04T00:34:20.230Z,22.50
2017-12-04T00:35:22.722Z,24.35
2017-12-04T00:36:25.238Z,22.42
2017-12-04T00:37:27.726Z,23.30
2017-12-04T00:38:30.997Z,22.73
2017-12-04T00:39:33.564Z,22.95
2017-12-04T00:40:36.019Z,22.33
2017-12-04T00:41:38.706Z,21.35
2017-12-04T00:42:41.938Z,22.92
2017-12-04T00:43:45.213Z,22.45
2017-12-04T00:44:48.020Z,22.45
2017-12-04T00:45:51.375Z,22.92
2017-12-04T00:46:53.891Z,23.90
2017-12-04T00:47:57.166Z,22.02
2017-12-04T00:48:59.759Z,23.98
2017-12-04T00:50:03.015Z,23.00
2017-12-04T00:51:05.511Z,23.65
2017-12-04T00:52:08.228Z,23.98
2017-12-04T00:53:11.006Z,23.83
2017-12-04T00:54:14.359Z,23.45
2017-12-04T00:55:16.853Z,22.60
2017-12-04T00:56:20.086Z,23.20
2017-12-04T00:57:22.573Z,24.15
2017-12-04T00:58:25.089Z,23.87
2017-12-04T00:59:27.609Z,22.85
2017-12-04T01:00:30.122Z,22.42
2017-12-04T01:01:32.699Z,22.55
2017-12-04T01:02:35.179Z,22.00
2017-12-04T01:03:37.722Z,21.17
2017-12-04T01:04:40.211Z,22.17
2017-12-04T01:05:43.437Z,21.77
2017-12-04T01:06:45.939Z,22.55
2017-12-04T01:07:48.419Z,21.00
2017-12-04T01:08:50.918Z,21.33
2017-12-04T01:09:54.160Z,21.42
2017-12-04T01:10:57.420Z,24.25
2017-12-04T01:11:59.873Z,23.08
2017-12-04T01:13:02.382Z,21.95
2017-12-04T01:14:04.963Z,22.62
2017-12-04T01:15:07.434Z,22.75
2017-12-04T01:16:10.075Z,22.92
2017-12-04T01:17:12.584Z,21.40
2017-12-04T01:18:15.075Z,22.98
2017-12-04T01:19:17.686Z,24.33
2017-12-04T01:20:20.163Z,23.20
2017-12-04T01:21:23.390Z,22.42
2017-12-04T01:22:26.635Z,24.63
2017-12-04T01:23:29.916Z,23.60
2017-12-04T01:24:32.790Z,22.45
2017-12-04T01:25:35.263Z,22.98
2017-12-04T01:26:37.786Z,23.95
2017-12-04T01:27:40.270Z,24.05
2017-12-04T01:28:42.854Z,23.77
2017-12-04T01:29:45.308Z,24.58
2017-12-04T01:30:47.782Z,24.73
2017-12-04T01:31:50.240Z,24.83
2017-12-04T01:32:52.727Z,25.90
2017-12-04T01:33:55.222Z,25.05
2017-12-04T01:34:58.462Z,24.80
2017-12-04T01:36:01.709Z,24.48
2017-12-04T01:37:04.179Z,22.90
2017-12-04T01:38:06.646Z,26.12
2017-12-04T01:39:09.148Z,23.87
2017-12-04T01:40:11.601Z,25.50
2017-12-04T01:41:14.113Z,24.48
2017-12-04T01:42:16.601Z,26.27
2017-12-04T01:43:19.085Z,24.12
2017-12-04T01:44:22.305Z,24.00
2017-12-04T01:45:24.786Z,23.55
2017-12-04T01:46:27.249Z,25.98
2017-12-04T01:47:29.732Z,24.63
2017-12-04T01:48:32.252Z,24.05
2017-12-04T01:49:34.766Z,24.75
2017-12-04T01:50:38.004Z,26.20
2017-12-04T01:51:41.263Z,24.42
2017-12-04T01:52:43.737Z,25.33
2017-12-04T01:53:46.242Z,25.12
2017-12-04T01:54:48.712Z,24.52
2017-12-04T01:55:51.960Z,24.67
2017-12-04T01:56:55.185Z,25.90
2017-12-04T01:57:57.655Z,26.30
2017-12-04T01:59:00.187Z,24.55
2017-12-04T02:00:02.672Z,24.23
2017-12-04T02:01:05.941Z,23.73
2017-12-04T02:02:08.412Z,25.45
2017-12-04T02:03:10.991Z,24.80
2017-12-04T02:04:13.527Z,23.85
2017-12-04T02:05:16.052Z,23.95
2017-12-04T02:06:18.520Z,24.67
2017-12-04T02:07:21.015Z,24.35
2017-12-04T02:08:23.476Z,22.85
2017-12-04T02:09:25.967Z,22.90
2017-12-04T02:10:28.432Z,24.15
2017-12-04T02:11:30.921Z,22.98
2017-12-04T02:12:33.383Z,23.85
2017-12-04T02:13:36.667Z,23.95
2017-12-04T02:14:39.162Z,24.27
2017-12-04T02:15:42.400Z,23.70
2017-12-04T02:16:45.686Z,23.77
2017-12-04T02:17:48.193Z,22.83
2017-12-04T02:18:50.667Z,23.00
2017-12-04T02:19:53.258Z,23.33
2017-12-04T02:20:55.738Z,22.85
2017-12-04T02:21:58.210Z,23.80
2017-12-04T02:23:00.698Z,22.55
2017-12-04T02:24:03.958Z,22.73
2017-12-04T02:25:06.474Z,22.50
2017-12-04T02:26:09.717Z,22.17
2017-12-04T02:27:12.987Z,22.35
2017-12-04T02:28:15.473Z,23.05
2017-12-04T02:29:17.935Z,23.48
2017-12-04T02:30:20.449Z,23.50
2017-12-04T02:31:22.912Z,21.85
2017-12-04T02:32:25.408Z,21.58
2017-12-04T02:33:27.923Z,21.33
2017-12-04T02:34:30.438Z,21.62
2017-12-04T02:35:34.146Z,21.67
2017-12-04T02:36:36.619Z,21.02
2017-12-04T02:37:39.843Z,20.45
2017-12-04T02:38:43.079Z,20.85
2017-12-04T02:39:45.563Z,21.55
2017-12-04T02:40:48.055Z,21.05
2017-12-04T02:41:50.524Z,21.62
2017-12-04T02:42:53.029Z,20.12
2017-12-04T02:43:55.488Z,20.62
2017-12-04T02:44:57.965Z,20.08
2017-12-04T02:46:00.473Z,19.37
2017-12-04T02:47:03.835Z,20.33
2017-12-04T02:48:06.305Z,19.90
2017-12-04T02:49:08.888Z,19.10
2017-12-04T02:50:11.354Z,21.23
2017-12-04T02:51:13.820Z,19.40
2017-12-04T02:52:17.076Z,20.08
2017-12-04T02:53:19.559Z,21.42
2017-12-04T02:54:22.118Z,19.62
2017-12-04T02:55:24.604Z,19.20
2017-12-04T02:56:27.072Z,20.05
2017-12-04T02:57:29.582Z,21.10
2017-12-04T02:58:32.102Z,19.48
2017-12-04T02:59:35.254Z,19.92
2017-12-04T03:00:37.998Z,20.85
2017-12-04T03:01:40.617Z,20.33
2017-12-04T03:02:43.940Z,20.20
2017-12-04T03:03:47.340Z,19.80
2017-12-04T03:04:49.950Z,20.45
2017-12-04T03:05:52.476Z,19.27
2017-12-04T03:06:54.940Z,20.77
2017-12-04T03:07:57.441Z,21.33
2017-12-04T03:08:59.977Z,21.92
2017-12-04T03:10:02.454Z,22.08
2017-12-04T03:11:05.705Z,21.05
2017-12-04T03:12:08.942Z,20.55
2017-12-04T03:13:12.218Z,21.42
2017-12-04T03:14:14.718Z,21.98
2017-12-04T03:15:17.545Z,21.65
2017-12-04T03:16:20.229Z,21.55
2017-12-04T03:17:22.759Z,20.65
2017-12-04T03:18:25.259Z,20.67
2017-12-04T03:19:27.997Z,20.15
2017-12-04T03:20:30.490Z,20.45
2017-12-04T03:21:32.967Z,20.50
2017-12-04T03:22:38.348Z,19.00
2017-12-04T03:23:41.911Z,21.05
2017-12-04T03:24:45.287Z,21.45
2017-12-04T03:25:48.571Z,20.08
2017-12-04T03:26:51.047Z,19.60
2017-12-04T03:27:54.570Z,20.48
2017-12-04T03:28:57.041Z,19.27
2017-12-04T03:30:00.270Z,19.55
2017-12-04T03:31:03.642Z,20.40
2017-12-04T03:32:06.322Z,19.42
2017-12-04T03:33:08.936Z,19.90
2017-12-04T03:34:11.410Z,18.92
2017-12-04T03:35:14.064Z,19.92
2017-12-04T03:36:16.551Z,18.98
2017-12-04T03:37:19.831Z,18.87
2017-12-04T03:38:22.343Z,17.60
2017-12-04T03:39:24.816Z,17.90
2017-12-04T03:40:27.316Z,18.80
2017-12-04T03:41:29.807Z,17.37
2017-12-04T03:42:33.074Z,18.75
2017-12-04T03:43:35.578Z,17.90
2017-12-04T03:44:38.063Z,19.10
2017-12-04T03:45:40.565Z,18.40
2017-12-04T03:46:43.073Z,18.20
2017-12-04T03:47:45.546Z,17.70
2017-12-04T03:48:48.018Z,18.87
2017-12-04T03:49:50.492Z,16.92
2017-12-04T03:50:53.733Z,18.12
2017-12-04T03:51:56.226Z,17.50
2017-12-04T03:52:58.690Z,17.17
2017-12-04T03:54:01.957Z,17.12
2017-12-04T03:55:05.187Z,17.73
2017-12-04T03:56:08.471Z,18.85
2017-12-04T03:57:10.934Z,17.55
2017-12-04T03:58:13.413Z,18.10
2017-12-04T03:59:15.877Z,18.90
2017-12-04T04:00:18.565Z,17.73
2017-12-04T04:01:21.042Z,18.67
2017-12-04T04:02:24.441Z,18.02
2017-12-04T04:03:26.919Z,18.05
2017-12-04T04:04:29.396Z,18.55
2017-12-04T04:05:31.918Z,18.25
2017-12-04T04:06:34.569Z,19.27
2017-12-04T04:07:37.035Z,19.60
2017-12-04T04:08:40.280Z,18.92
2017-12-04T04:09:43.510Z,18.60
2017-12-04T04:10:46.772Z,19.37
2017-12-04T04:11:49.253Z,18.33
2017-12-04T04:12:51.729Z,18.35
2017-12-04T04:13:54.212Z,19.20
2017-12-04T04:14:56.677Z,18.33
2017-12-04T04:15:59.154Z,20.17
2017-12-04T04:17:01.861Z,19.15
2017-12-04T04:18:04.362Z,19.27
2017-12-04T04:19:07.018Z,17.75
2017-12-04T04:20:09.520Z,17.35
2017-12-04T04:21:12.029Z,19.52
2017-12-04T04:22:15.259Z,18.45
2017-12-04T04:23:18.531Z,18.45
2017-12-04T04:24:20.999Z,20.25
2017-12-04T04:25:23.500Z,20.05
2017-12-04T04:26:26.415Z,19.83
2017-12-04T04:27:28.939Z,19.58
2017-12-04T04:28:31.409Z,19.42
2017-12-04T04:29:33.867Z,19.20
2017-12-04T04:30:37.139Z,19.17
2017-12-04T04:31:39.618Z,17.12
2017-12-04T04:32:42.079Z,18.52
2017-12-04T04:33:44.538Z,18.85
2017-12-04T04:34:47.099Z,18.48
2017-12-04T04:35:49.594Z,17.40
2017-12-04T04:36:52.112Z,18.05
2017-12-04T04:37:54.601Z,17.27
2017-12-04T04:38:58.490Z,17.33
2017-12-04T04:40:01.737Z,16.85
2017-12-04T04:41:04.342Z,17.62
2017-12-04T04:42:06.814Z,17.05
2017-12-04T04:43:09.362Z,16.85
2017-12-04T04:44:12.626Z,15.93
2017-12-04T04:45:15.134Z,15.98
2017-12-04T04:46:18.455Z,16.75
2017-12-04T04:47:20.897Z,14.82
2017-12-04T04:48:24.129Z,16.42
2017-12-04T04:49:27.387Z,15.50
2017-12-04T04:50:30.628Z,15.23
2017-12-04T04:51:33.932Z,15.02
2017-12-04T04:52:36.401Z,15.30
2017-12-04T04:53:39.686Z,15.57
2017-12-04T04:54:42.147Z,13.80
2017-12-04T04:55:44.636Z,15.30
2017-12-04T04:56:47.129Z,14.77
2017-12-04T04:57:49.618Z,15.05
2017-12-04T04:58:52.099Z,15.15
2017-12-04T04:59:54.601Z,14.18
2017-12-04T05:00:57.120Z,14.65
2017-12-04T05:02:00.382Z,14.48
2017-12-04T05:03:02.870Z,13.80
2017-12-04T05:04:06.120Z,13.60
2017-12-04T05:05:08.594Z,13.20
2017-12-04T05:06:11.081Z,14.48
2017-12-04T05:07:14.343Z,13.20
2017-12-04T05:08:16.818Z,12.63
2017-12-04T05:09:19.290Z,12.75
2017-12-04T05:10:21.790Z,11.80
2017-12-04T05:11:24.308Z,11.75
2017-12-04T05:12:26.774Z,11.20
2017-12-04T05:13:29.242Z,11.70
2017-12-04T05:14:32.354Z,11.70
2017-12-04T05:15:34.840Z,11.93
2017-12-04T05:16:37.341Z,11.95
2017-12-04T05:17:39.794Z,10.30
2017-12-04T05:18:42.302Z,10.15
2017-12-04T05:19:45.563Z,11.52
2017-12-04T05:20:48.786Z,11.23
2017-12-04T05:21:52.070Z,9.73
2017-12-04T05:22:54.579Z,10.52
2017-12-04T05:23:57.073Z,10.50
2017-12-04T05:24:59.564Z,11.10
2017-12-04T05:26:02.038Z,11.00
2017-12-04T05:27:05.307Z,10.10
2017-12-04T05:28:07.785Z,9.98
2017-12-04T05:29:10.255Z,9.43
2017-12-04T05:30:12.766Z,9.25
2017-12-04T05:31:15.295Z,9.07
2017-12-04T05:32:17.782Z,9.50
2017-12-04T05:33:20.225Z,9.52
2017-12-04T05:34:23.466Z,9.38
2017-12-04T05:35:26.728Z,10.88
2017-12-04T05:36:29.223Z,9.48
2017-12-04T05:37:31.806Z,10.52
2017-12-04T05:38:34.283Z,10.15
2017-12-04T05:39:37.560Z,9.48
2017-12-04T05:40:40.843Z,9.60
2017-12-04T05:41:43.297Z,9.80
2017-12-04T05:42:46.696Z,8.88
2017-12-04T05:43:49.174Z,9.02
2017-12-04T05:44:52.435Z,8.57
2017-12-04T05:45:54.977Z,8.90
2017-12-04T05:46:57.431Z,9.77
2017-12-04T05:47:59.951Z,8.85
2017-12-04T05:49:03.180Z,9.50
2017-12-04T05:50:05.659Z,9.20
2017-12-04T05:51:08.943Z,9.27
2017-12-04T05:52:11.387Z,8.48
2017-12-04T05:53:13.876Z,8.77
2017-12-04T05:54:16.334Z,8.60
2017-12-04T05:55:18.809Z,8.30
2017-12-04T05:56:22.070Z,7.97
2017-12-04T05:57:24.544Z,9.10
2017-12-04T05:58:27.010Z,8.32
2017-12-04T05:59:29.502Z,7.50
2017-12-04T06:00:31.986Z,7.53
2017-12-04T06:01:34.607Z,8.35
2017-12-04T06:02:37.094Z,7.78
2017-12-04T06:03:40.331Z,7.80
2017-12-04T06:04:43.552Z,8.52
2017-12-04T06:05:46.076Z,7.82
2017-12-04T06:06:48.550Z,7.47
2017-12-04T06:07:51.054Z,8.60
2017-12-04T06:08:54.305Z,9.05
2017-12-04T06:09:56.803Z,8.00
2017-12-04T06:10:59.379Z,8.00
2017-12-04T06:12:01.879Z,7.22
2017-12-04T06:13:04.335Z,7.50
2017-12-04T06:14:06.803Z,8.63
2017-12-04T06:15:11.002Z,6.60
2017-12-04T06:16:14.276Z,7.28
2017-12-04T06:17:16.776Z,7.10
2017-12-04T06:18:19.244Z,7.10
2017-12-04T06:19:21.747Z,6.80
2017-12-04T06:20:24.213Z,7.00
2017-12-04T06:21:26.801Z,7.45
2017-12-04T06:22:29.340Z,7.00
2017-12-04T06:23:31.822Z,7.10
2017-12-04T06:24:34.330Z,6.93
2017-12-04T06:25:37.658Z,6.22
2017-12-04T06:26:40.127Z,6.20
2017-12-04T06:27:43.211Z,6.28
2017-12-04T06:28:45.677Z,6.60
2017-12-04T06:29:48.204Z,6.95
2017-12-04T06:30:51.426Z,6.65
2017-12-04T06:31:54.669Z,7.15
2017-12-04T06:32:57.964Z,6.35
2017-12-04T06:34:00.422Z,6.18
2017-12-04T06:35:03.067Z,6.18
2017-12-04T06:36:06.293Z,6.12
2017-12-04T06:37:08.745Z,5.70
2017-12-04T06:38:11.997Z,5.60
2017-12-04T06:39:14.475Z,6.97
2017-12-04T06:40:16.952Z,5.55
2017-12-04T06:41:19.417Z,5.30
2017-12-04T06:42:21.889Z,5.90
2017-12-04T06:43:25.135Z,7.28
2017-12-04T06:44:27.611Z,7.15
2017-12-04T06:45:30.064Z,6.47
2017-12-04T06:46:33.323Z,6.15
2017-12-04T06:47:36.557Z,5.60
2017-12-04T06:48:39.931Z,5.45
2017-12-04T06:49:42.439Z,5.85
2017-12-04T06:50:45.662Z,5.65
2017-12-04T06:51:48.940Z,5.47
2017-12-04T06:52:51.425Z,5.15
2017-12-04T06:53:54.860Z,5.75
2017-12-04T06:54:58.830Z,5.40
2017-12-04T06:56:01.290Z,5.12
2017-12-04T06:57:03.820Z,5.43
2017-12-04T06:58:06.304Z,5.30
2017-12-04T06:59:08.820Z,5.03
2017-12-04T07:00:11.409Z,4.90
2017-12-04T07:01:13.874Z,4.93
2017-12-04T07:02:16.353Z,4.72
2017-12-04T07:03:20.170Z,4.60
2017-12-04T07:04:23.458Z,5.28
2017-12-04T07:05:26.156Z,5.10
2017-12-04T07:06:29.415Z,4.10
2017-12-04T07:07:32.631Z,4.50
2017-12-04T07:08:35.894Z,4.47
2017-12-04T07:09:38.382Z,4.45
2017-12-04T07:10:40.877Z,4.10
2017-12-04T07:11:43.342Z,5.07
2017-12-04T07:12:46.620Z,4.20
2017-12-04T07:13:49.118Z,4.62
2017-12-04T07:14:52.505Z,4.15
2017-12-04T07:15:55.059Z,3.97
2017-12-04T07:16:57.658Z,4.30
2017-12-04T07:18:00.151Z,4.72
2017-12-04T07:19:02.656Z,3.55
2017-12-04T07:20:05.168Z,4.55
2017-12-04T07:21:07.671Z,3.60
2017-12-04T07:22:10.448Z,3.75
2017-12-04T07:23:13.706Z,3.70
2017-12-04T07:24:16.930Z,3.85
2017-12-04T07:25:20.171Z,3.95
2017-12-04T07:26:23.415Z,3.65
2017-12-04T07:27:26.675Z,3.50
2017-12-04T07:28:29.257Z,3.72
2017-12-04T07:29:31.767Z,4.20
2017-12-04T07:30:34.259Z,4.03
2017-12-04T07:31:36.920Z,3.97
2017-12-04T07:32:39.387Z,3.83
2017-12-04T07:33:42.687Z,3.97
2017-12-04T07:34:45.137Z,3.70
2017-12-04T07:35:47.619Z,3.35
2017-12-04T07:36:50.077Z,2.95
2017-12-04T07:37:52.575Z,3.80
2017-12-04T07:38:55.048Z,3.55
2017-12-04T07:39:57.573Z,3.60
2017-12-04T07:41:01.559Z,3.87
2017-12-04T07:42:04.051Z,3.85
2017-12-04T07:43:06.543Z,3.47
2017-12-04T07:44:09.011Z,3.80
2017-12-04T07:45:12.845Z,3.78
2017-12-04T07:46:15.333Z,2.92
2017-12-04T07:47:17.854Z,3.62
2017-12-04T07:48:20.329Z,3.62
2017-12-04T07:49:22.887Z,3.37
2017-12-04T07:50:26.130Z,3.45
2017-12-04T07:51:30.422Z,3.80
2017-12-04T07:52:35.064Z,3.40
2017-12-04T07:53:38.423Z,3.87
2017-12-04T07:54:40.960Z,3.47
2017-12-04T07:55:43.631Z,3.33
2017-12-04T07:56:46.118Z,3.20
2017-12-04T07:57:48.611Z,3.22
2017-12-04T07:58:51.864Z,3.30
2017-12-04T07:59:55.099Z,3.53
2017-12-04T08:00:58.394Z,3.00
2017-12-04T08:02:00.862Z,3.40
2017-12-04T08:03:04.078Z,3.53
2017-12-04T08:04:06.578Z,3.37
2017-12-04T08:05:09.031Z,2.70
2017-12-04T08:06:11.527Z,3.35
2017-12-04T08:07:14.264Z,2.90
2017-12-04T08:08:16.728Z,3.10
2017-12-04T08:09:19.225Z,3.03
2017-12-04T08:10:21.771Z,3.37
2017-12-04T08:11:24.250Z,3.28
2017-12-04T08:12:26.769Z,3.60
2017-12-04T08:13:29.248Z,3.42
2017-12-04T08:14:31.728Z,3.47
2017-12-04T08:15:34.183Z,3.03
2017-12-04T08:16:36.687Z,4.72
2017-12-04T08:17:39.284Z,3.58
2017-12-04T08:18:41.818Z,3.37
2017-12-04T08:19:44.290Z,3.03
2017-12-04T08:20:46.898Z,3.10
2017-12-04T08:21:49.390Z,3.53
2017-12-04T08:22:51.915Z,3.37
2017-12-04T08:23:54.385Z,3.50
2017-12-04T08:24:56.945Z,4.18
2017-12-04T08:25:59.447Z,4.30
2017-12-04T08:27:01.935Z,3.10
2017-12-04T08:28:04.435Z,3.75
2017-12-04T08:29:07.949Z,3.30
2017-12-04T08:30:10.412Z,3.70
2017-12-04T08:31:12.882Z,2.80
2017-12-04T08:32:16.611Z,3.30
2017-12-04T08:33:19.137Z,2.58
2017-12-04T08:34:21.637Z,3.10
2017-12-04T08:35:24.967Z,2.90
2017-12-04T08:36:28.218Z,2.87
2017-12-04T08:37:31.477Z,2.75
2017-12-04T08:38:34.130Z,2.55
2017-12-04T08:39:36.667Z,3.10
2017-12-04T08:40:39.136Z,2.47
2017-12-04T08:41:42.407Z,2.78
2017-12-04T08:42:44.935Z,3.03
2017-12-04T08:43:47.390Z,2.70
2017-12-04T08:44:53.600Z,2.72
2017-12-04T08:45:56.090Z,2.83
2017-12-04T08:46:58.648Z,3.35
2017-12-04T08:48:01.172Z,3.35
2017-12-04T08:49:04.559Z,3.55
2017-12-04T08:50:08.178Z,2.60
2017-12-04T08:51:10.715Z,3.00
2017-12-04T08:52:13.237Z,3.58
2017-12-04T08:53:15.702Z,3.00
2017-12-04T08:54:18.627Z,3.12
2017-12-04T08:55:21.885Z,2.85
2017-12-04T08:56:24.395Z,3.22
2017-12-04T08:57:27.652Z,3.25
2017-12-04T08:58:30.103Z,3.87
2017-12-04T08:59:32.576Z,3.40
2017-12-04T09:00:35.832Z,4.07
2017-12-04T09:01:39.311Z,3.00
2017-12-04T09:02:41.818Z,3.47
2017-12-04T09:03:44.267Z,3.83
2017-12-04T09:04:46.805Z,3.70
2017-12-04T09:05:49.598Z,3.15
2017-12-04T09:06:52.078Z,3.28
2017-12-04T09:07:54.551Z,2.67
2017-12-04T09:08:57.049Z,2.80
2017-12-04T09:10:00.515Z,2.45
2017-12-04T09:11:03.051Z,2.85
2017-12-04T09:12:05.515Z,3.25
2017-12-04T09:13:07.998Z,2.65
2017-12-04T09:14:10.543Z,2.60
2017-12-04T09:15:14.430Z,2.92
2017-12-04T09:16:17.049Z,3.15
2017-12-04T09:17:21.849Z,2.90
2017-12-04T09:18:24.393Z,3.47
2017-12-04T09:19:26.903Z,2.95
2017-12-04T09:20:30.168Z,3.55
2017-12-04T09:21:33.437Z,2.70
2017-12-04T09:22:35.960Z,3.05
2017-12-04T09:23:38.446Z,2.87
2017-12-04T09:24:41.720Z,2.97
2017-12-04T09:25:44.262Z,3.60
2017-12-04T09:26:47.220Z,3.05
2017-12-04T09:27:49.683Z,2.87
2017-12-04T09:28:52.916Z,2.60
2017-12-04T09:29:55.432Z,3.22
2017-12-04T09:30:57.912Z,3.33
2017-12-04T09:32:00.374Z,2.95
2017-12-04T09:33:02.844Z,2.95
2017-12-04T09:34:06.112Z,2.47
2017-12-04T09:35:08.573Z,2.30
2017-12-04T09:36:11.038Z,2.50
2017-12-04T09:37:13.535Z,3.12
2017-12-04T09:38:16.810Z,3.10
2017-12-04T09:39:19.319Z,2.90
2017-12-04T09:40:22.568Z,2.80
2017-12-04T09:41:25.131Z,3.40
2017-12-04T09:42:27.643Z,3.10
2017-12-04T09:43:30.113Z,3.35
2017-12-04T09:44:32.677Z,2.42
2017-12-04T09:45:35.148Z,3.15
2017-12-04T09:46:38.288Z,2.80
2017-12-04T09:47:40.776Z,2.80
2017-12-04T09:48:43.272Z,2.70
2017-12-04T09:49:46.503Z,2.78
2017-12-04T09:50:48.970Z,3.15
2017-12-04T09:51:51.533Z,2.65
2017-12-04T09:52:54.055Z,2.50
2017-12-04T09:53:57.030Z,2.85
2017-12-04T09:55:00.284Z,2.20
2017-12-04T09:56:03.522Z,2.95
2017-12-04T09:57:06.930Z,2.20
2017-12-04T09:58:09.391Z,1.70
2017-12-04T09:59:12.637Z,1.15
2017-12-04T10:00:15.882Z,1.62
2017-12-04T10:01:18.375Z,1.10
2017-12-04T10:02:20.842Z,1.00
2017-12-04T10:03:23.352Z,0.90
2017-12-04T10:04:26.608Z,1.17
2017-12-04T10:05:29.873Z,1.00
2017-12-04T10:06:32.339Z,1.05
2017-12-04T10:07:34.804Z,1.00
2017-12-04T10:08:37.312Z,1.40
2017-12-04T10:09:40.543Z,0.95
2017-12-04T10:10:43.864Z,0.95
2017-12-04T10:11:46.398Z,0.98
2017-12-04T10:12:48.878Z,1.10
2017-12-04T10:13:51.387Z,1.23
2017-12-04T10:14:53.891Z,1.35
2017-12-04T10:15:56.466Z,1.40
2017-12-04T10:16:58.968Z,1.20
2017-12-04T10:18:01.418Z,1.30
2017-12-04T10:19:03.916Z,0.80
2017-12-04T10:20:06.394Z,1.55
2017-12-04T10:21:10.367Z,1.23
2017-12-04T10:22:13.632Z,1.80
2017-12-04T10:23:16.118Z,1.90
2017-12-04T10:24:19.367Z,1.77
2017-12-04T10:25:21.846Z,1.48
2017-12-04T10:26:24.352Z,1.55
2017-12-04T10:27:27.583Z,1.65
2017-12-04T10:28:30.870Z,1.70
2017-12-04T10:29:33.430Z,2.00
2017-12-04T10:30:35.893Z,1.77
2017-12-04T10:31:39.135Z,1.80
2017-12-04T10:32:41.603Z,1.75
2017-12-04T10:33:44.102Z,1.77
2017-12-04T10:34:46.567Z,1.62
2017-12-04T10:35:49.134Z,1.67
2017-12-04T10:36:51.658Z,1.95
2017-12-04T10:37:54.171Z,2.05
2017-12-04T10:38:57.407Z,1.58
2017-12-04T10:40:01.593Z,2.05
2017-12-04T10:41:04.068Z,1.85
2017-12-04T10:42:06.542Z,2.10
2017-12-04T10:43:09.039Z,2.00
2017-12-04T10:44:11.500Z,1.80
2017-12-04T10:45:14.027Z,2.37
2017-12-04T10:46:16.490Z,2.10
2017-12-04T10:47:18.951Z,1.90
2017-12-04T10:48:22.200Z,2.60
2017-12-04T10:49:25.466Z,2.65
2017-12-04T10:50:27.933Z,2.17
2017-12-04T10:51:31.173Z,2.50
2017-12-04T10:52:33.643Z,3.08
2017-12-04T10:53:36.893Z,2.97
2017-12-04T10:54:39.427Z,2.42
2017-12-04T10:55:41.947Z,3.15
2017-12-04T10:56:44.435Z,3.50
2017-12-04T10:57:46.917Z,2.70
2017-12-04T10:58:49.371Z,3.35
2017-12-04T10:59:51.864Z,2.40
2017-12-04T11:00:54.320Z,2.70
2017-12-04T11:01:56.799Z,2.30
2017-12-04T11:02:59.306Z,2.90
2017-12-04T11:04:01.781Z,2.20
2017-12-04T11:05:04.275Z,2.50
2017-12-04T11:06:06.751Z,2.20
2017-12-04T11:07:09.219Z,2.37
2017-12-04T11:08:12.458Z,2.00
2017-12-04T11:09:14.922Z,3.12
2017-12-04T11:10:17.415Z,2.22
2017-12-04T11:11:19.943Z,2.50
2017-12-04T11:12:22.418Z,2.05
2017-12-04T11:13:24.920Z,1.80
2017-12-04T11:14:27.448Z,2.50
2017-12-04T11:15:29.937Z,2.30
2017-12-04T11:16:33.022Z,2.50
2017-12-04T11:17:35.498Z,2.28
2017-12-04T11:18:37.967Z,2.40
2017-12-04T11:19:40.428Z,2.20
2017-12-04T11:20:43.686Z,2.40
2017-12-04T11:21:46.184Z,2.42
2017-12-04T11:22:48.648Z,2.20
2017-12-04T11:23:51.113Z,2.00
2017-12-04T11:24:53.595Z,1.98
2017-12-04T11:25:56.095Z,2.00
2017-12-04T11:26:59.349Z,2.78
2017-12-04T11:28:02.585Z,2.60
2017-12-04T11:29:05.843Z,2.10
2017-12-04T11:30:08.304Z,1.90
2017-12-04T11:31:10.791Z,2.42
2017-12-04T11:32:13.296Z,3.03
2017-12-04T11:33:16.525Z,1.83
2017-12-04T11:34:19.007Z,2.30
2017-12-04T11:35:21.513Z,2.10
2017-12-04T11:36:24.772Z,2.28
2017-12-04T11:37:27.226Z,2.30
2017-12-04T11:38:29.804Z,1.95
2017-12-04T11:39:32.367Z,2.33
2017-12-04T11:40:34.858Z,2.12
2017-12-04T11:41:37.434Z,2.22
2017-12-04T11:42:40.027Z,2.47
2017-12-04T11:43:42.492Z,2.20
2017-12-04T11:44:45.082Z,2.42
2017-12-04T11:45:47.544Z,2.22
2017-12-04T11:46:50.039Z,2.30
2017-12-04T11:47:52.560Z,2.35
2017-12-04T11:48:55.020Z,2.30
2017-12-04T11:49:57.630Z,1.92
2017-12-04T11:51:00.119Z,2.47
2017-12-04T11:52:02.686Z,2.00
2017-12-04T11:53:05.174Z,2.20
2017-12-04T11:54:07.634Z,2.25
2017-12-04T11:55:10.091Z,2.15
2017-12-04T11:56:12.552Z,2.00
2017-12-04T11:57:15.162Z,1.80
2017-12-04T11:58:17.685Z,2.05
2017-12-04T11:59:20.932Z,1.67
2017-12-04T12:00:24.159Z,1.35
2017-12-04T12:01:27.399Z,2.35
2017-12-04T12:02:29.877Z,2.00
2017-12-04T12:03:32.374Z,2.20
2017-12-04T12:04:34.846Z,1.85
2017-12-04T12:05:37.444Z,1.90
2017-12-04T12:06:40.627Z,1.58
2017-12-04T12:07:43.093Z,2.10
2017-12-04T12:08:45.567Z,2.08
2017-12-04T12:09:48.902Z,1.83
2017-12-04T12:10:51.344Z,1.50
2017-12-04T12:11:53.827Z,2.08
2017-12-04T12:12:56.302Z,2.15
2017-12-04T12:13:59.535Z,1.90
2017-12-04T12:15:02.036Z,2.17
2017-12-04T12:16:04.508Z,1.12
2017-12-04T12:17:07.771Z,1.95
2017-12-04T12:18:10.259Z,1.80
2017-12-04T12:19:12.726Z,1.62
2017-12-04T12:20:16.068Z,1.58
2017-12-04T12:21:18.546Z,1.33
2017-12-04T12:22:21.019Z,1.42
2017-12-04T12:23:23.507Z,2.42
2017-12-04T12:24:26.800Z,1.73
2017-12-04T12:25:29.281Z,1.58
2017-12-04T12:26:32.768Z,1.80
2017-12-04T12:27:35.288Z,1.90
2017-12-04T12:28:37.783Z,2.17
2017-12-04T12:29:41.048Z,2.10
2017-12-04T12:30:43.515Z,1.83
2017-12-04T12:31:45.988Z,1.87
2017-12-04T12:32:48.482Z,2.15
2017-12-04T12:33:50.944Z,1.50
2017-12-04T12:34:53.413Z,1.85
2017-12-04T12:35:55.879Z,1.65
2017-12-04T12:36:59.118Z,2.15
2017-12-04T12:38:02.390Z,1.77
2017-12-04T12:39:04.915Z,1.85
2017-12-04T12:40:07.426Z,2.50
2017-12-04T12:41:09.891Z,2.15
2017-12-04T12:42:12.399Z,1.90
2017-12-04T12:43:14.875Z,2.30
2017-12-04T12:44:18.170Z,2.22
2017-12-04T12:45:20.675Z,2.10
2017-12-04T12:46:23.179Z,1.95
2017-12-04T12:47:26.410Z,1.75
2017-12-04T12:48:29.643Z,1.83
2017-12-04T12:49:32.107Z,2.17
2017-12-04T12:50:34.581Z,2.10
2017-12-04T12:51:37.092Z,2.15
2017-12-04T12:52:39.585Z,3.15
2017-12-04T12:53:42.054Z,2.00
2017-12-04T12:54:45.302Z,2.00
2017-12-04T12:55:47.775Z,2.20
2017-12-04T12:56:50.258Z,2.05
2017-12-04T12:57:52.726Z,1.55
2017-12-04T12:58:55.211Z,1.83
2017-12-04T12:59:57.661Z,1.70
2017-12-04T13:01:00.892Z,2.25
2017-12-04T13:02:04.154Z,1.85
2017-12-04T13:03:06.615Z,1.60
2017-12-04T13:04:09.084Z,1.95
2017-12-04T13:05:12.318Z,1.48
2017-12-04T13:06:15.600Z,1.80
2017-12-04T13:07:18.067Z,1.65
2017-12-04T13:08:20.539Z,1.85
2017-12-04T13:09:23.019Z,1.48
2017-12-04T13:10:25.508Z,2.37
2017-12-04T13:11:27.991Z,2.30
2017-12-04T13:12:31.214Z,1.80
2017-12-04T13:13:33.673Z,2.40
2017-12-04T13:14:36.161Z,2.10
2017-12-04T13:15:38.763Z,2.25
2017-12-04T13:16:41.278Z,2.50
2017-12-04T13:17:43.745Z,2.47
2017-12-04T13:18:46.208Z,1.60
2017-12-04T13:19:48.679Z,2.37
2017-12-04T13:20:51.162Z,1.80
2017-12-04T13:21:53.785Z,2.47
2017-12-04T13:22:56.234Z,2.10
2017-12-04T13:23:58.748Z,2.22
2017-12-04T13:25:01.214Z,2.15
2017-12-04T13:26:03.729Z,2.80
2017-12-04T13:27:07.039Z,2.35
2017-12-04T13:28:09.546Z,2.47
2017-12-04T13:29:12.762Z,2.53
2017-12-04T13:30:16.011Z,1.75
2017-12-04T13:31:18.461Z,2.12
2017-12-04T13:32:32.877Z,2.17
2017-12-04T13:33:47.129Z,2.03
2017-12-04T13:36:44.012Z,1.98
2017-12-04T13:37:46.470Z,2.50
2017-12-04T13:38:48.940Z,2.33
2017-12-04T13:39:51.411Z,2.28
2017-12-04T13:40:53.869Z,2.15
2017-12-04T13:41:57.127Z,2.08
2017-12-04T13:42:59.582Z,2.62
2017-12-04T13:44:02.186Z,2.50
2017-12-04T13:45:04.690Z,1.85
2017-12-04T13:46:07.922Z,2.30